Terminal Aerodrome Forecast
Issued by NWS Houston/Galveston, TX

Home | Current Version | Previous Version | Text Only | Print | Product List | Glossary On
Versions: 1 2 3 4 5 6 7 8 9 10 11 12 13
000
FTUS44 KHGX 250546 CCA
TAFCLL
TAF COR
KCLL 250546Z 2506/2606 16007KT P6SM VCTS SCT020CB BKN100
     FM250800 17005KT P6SM SCT250
     FM251300 18003KT P6SM BKN022
     FM251600 16006KT P6SM SCT040
     FM251800 VRB05KT P6SM VCTS BKN045CB PROB30 2518/2524 5SM TSRA
      BR BKN025CB
     FM260200 VRB04KT P6SM VCSH SCT040=

USA.gov is the U.S. government's official web portal to all federal, state and local government web resources and services.